Time;durP1;ratioP1;P1;durP2;ratioP2;P2;SDS_P1;SDS_P2;PMS_P1;PMS_P2;Temp;Humidity;BMP_temperature;BMP_pressure;BME280_temperature;BME280_humidity;BME280_pressure;Samples;Min_cycle;Max_cycle;Signal;HPM_P1;HPM_P2
2022/10/27 00:01:17;;;;;;;20.30;16.97;;;13.40;95.80;;;;;;5056468;28;20453;-74
2022/10/27 00:03:44;;;;;;;17.07;15.77;;;13.40;95.50;;;;;;5063492;28;20459;-74
2022/10/27 00:06:11;;;;;;;17.97;16.13;;;13.40;95.70;;;;;;5057808;28;20491;-74
2022/10/27 00:08:38;;;;;;;18.97;16.87;;;13.40;95.60;;;;;;5064328;28;20573;-74
2022/10/27 00:11:06;;;;;;;17.70;16.40;;;13.40;95.70;;;;;;5068303;28;20574;-74
2022/10/27 00:13:34;;;;;;;18.40;16.90;;;13.30;96.00;;;;;;5056588;28;20459;-75
2022/10/27 00:16:05;;;;;;;17.87;16.17;;;13.30;95.90;;;;;;5059993;28;20601;-74
2022/10/27 00:18:33;;;;;;;17.77;16.50;;;13.30;95.80;;;;;;5057153;28;20842;-74
2022/10/27 00:21:01;;;;;;;18.47;16.90;;;13.30;95.30;;;;;;5055354;28;21095;-74
2022/10/27 00:23:28;;;;;;;18.40;16.80;;;13.20;95.20;;;;;;5048041;28;20832;-74
2022/10/27 00:25:55;;;;;;;17.87;16.37;;;13.20;95.70;;;;;;5061459;28;20839;-74
2022/10/27 00:28:23;;;;;;;17.70;16.37;;;13.20;95.70;;;;;;5067617;28;20447;-74
2022/10/27 00:30:58;;;;;;;17.87;16.10;;;13.10;95.50;;;;;;5067087;28;20463;-74
2022/10/27 00:33:26;;;;;;;17.00;15.60;;;13.10;95.50;;;;;;5064139;28;20453;-74
2022/10/27 00:35:53;;;;;;;17.30;15.70;;;13.10;95.50;;;;;;5056158;28;21021;-74
2022/10/27 00:38:21;;;;;;;17.47;16.07;;;13.00;95.70;;;;;;5053975;28;20454;-74
2022/10/27 00:40:48;;;;;;;18.33;16.60;;;13.00;96.00;;;;;;5048051;28;20461;-74
2022/10/27 00:43:26;;;;;;;18.03;16.23;;;12.90;96.10;;;;;;5048709;28;20763;-74
2022/10/27 00:45:54;;;;;;;17.40;15.80;;;12.90;96.10;;;;;;5059263;28;20491;-74
2022/10/27 00:48:21;;;;;;;18.67;17.00;;;12.90;96.20;;;;;;5073795;28;20474;-74
2022/10/27 00:50:50;;;;;;;18.33;16.60;;;12.80;96.10;;;;;;5064264;28;20455;-74
2022/10/27 00:53:17;;;;;;;18.33;16.73;;;12.80;95.90;;;;;;5060026;28;20462;-74
2022/10/27 00:55:44;;;;;;;19.97;17.40;;;12.80;95.90;;;;;;5061273;28;20474;-74
2022/10/27 00:58:16;;;;;;;18.73;17.10;;;12.80;95.70;;;;;;5082002;28;20957;-74
2022/10/27 01:00:43;;;;;;;17.87;16.17;;;12.70;96.10;;;;;;5056105;28;20468;-74
2022/10/27 01:03:14;;;;;;;16.90;15.37;;;12.70;96.30;;;;;;5057704;28;20876;-74
2022/10/27 01:05:43;;;;;;;17.27;15.80;;;12.70;96.20;;;;;;5066601;28;20481;-74
2022/10/27 01:08:12;;;;;;;16.77;15.57;;;12.70;96.00;;;;;;5049704;28;20504;-74
2022/10/27 01:10:40;;;;;;;17.93;16.33;;;12.70;95.80;;;;;;5050910;28;20553;-74
2022/10/27 01:13:07;;;;;;;17.87;16.57;;;12.60;95.80;;;;;;5054619;28;20458;-74
2022/10/27 01:15:40;;;;;;;18.93;16.90;;;12.60;96.10;;;;;;5061928;28;20469;-74
2022/10/27 01:18:19;;;;;;;17.47;16.03;;;12.60;96.20;;;;;;5054578;28;20460;-74
2022/10/27 01:21:19;;;;;;;17.87;16.37;;;12.60;96.50;;;;;;5054448;28;20460;-74
2022/10/27 01:24:07;;;;;;;18.07;16.37;;;12.60;96.60;;;;;;5049230;28;20523;-74
2022/10/27 01:26:49;;;;;;;18.10;16.60;;;12.60;96.60;;;;;;5056203;28;20455;-74
2022/10/27 01:29:51;;;;;;;16.97;15.73;;;12.50;96.50;;;;;;5055755;28;20836;-74
2022/10/27 01:32:32;;;;;;;16.97;15.40;;;12.50;96.60;;;;;;5059518;28;20464;-74
2022/10/27 01:35:08;;;;;;;18.10;16.03;;;12.50;96.60;;;;;;5053240;28;20474;-74
2022/10/27 01:37:41;;;;;;;17.57;16.17;;;12.50;96.30;;;;;;5055985;28;20992;-74
2022/10/27 01:40:16;;;;;;;17.40;15.90;;;12.50;95.90;;;;;;5050565;28;20506;-74
2022/10/27 01:42:48;;;;;;;17.30;15.47;;;12.40;95.90;;;;;;5054523;28;20461;-74
2022/10/27 01:45:21;;;;;;;16.93;15.60;;;12.40;96.00;;;;;;5061261;28;20509;-74
2022/10/27 01:47:50;;;;;;;17.93;16.33;;;12.30;96.20;;;;;;5066450;28;20492;-74
2022/10/27 01:50:18;;;;;;;16.93;15.23;;;12.30;96.50;;;;;;5058231;28;20542;-74
2022/10/27 01:52:47;;;;;;;18.77;17.07;;;12.30;96.60;;;;;;5071872;28;20457;-75
2022/10/27 01:55:18;;;;;;;17.23;15.67;;;12.20;96.60;;;;;;5066330;28;20887;-75
2022/10/27 01:57:58;;;;;;;17.47;16.03;;;12.20;96.60;;;;;;5066145;28;20459;-75
2022/10/27 02:00:24;;;;;;;16.53;14.97;;;12.20;96.70;;;;;;5056748;28;20450;-75
2022/10/27 02:02:57;;;;;;;16.40;15.00;;;12.20;96.90;;;;;;5066736;28;20473;-75
2022/10/27 02:05:32;;;;;;;17.17;15.60;;;12.20;97.10;;;;;;5066614;28;20483;-75
2022/10/27 02:08:07;;;;;;;17.03;15.90;;;12.20;97.10;;;;;;5052131;28;20459;-75
2022/10/27 02:10:40;;;;;;;16.90;15.40;;;12.20;97.10;;;;;;5061493;28;20571;-75
2022/10/27 02:13:07;;;;;;;22.53;20.83;;;12.30;96.80;;;;;;5067513;28;20458;-75
2022/10/27 02:15:39;;;;;;;18.70;17.13;;;12.20;96.80;;;;;;5061940;28;20495;-75
2022/10/27 02:18:11;;;;;;;17.33;15.97;;;12.20;96.50;;;;;;5068410;28;20469;-75
2022/10/27 02:20:40;;;;;;;18.00;16.20;;;12.20;96.70;;;;;;5058176;28;20963;-75
2022/10/27 02:23:12;;;;;;;17.93;16.63;;;12.10;96.80;;;;;;5058433;28;20478;-75
2022/10/27 02:25:44;;;;;;;17.50;16.20;;;12.10;96.90;;;;;;5058413;28;22243;-75
2022/10/27 02:28:13;;;;;;;19.40;17.80;;;12.10;96.90;;;;;;5066024;28;20491;-75
2022/10/27 02:30:42;;;;;;;18.03;16.30;;;12.10;97.10;;;;;;5061268;28;20477;-75
2022/10/27 02:33:11;;;;;;;19.00;17.43;;;12.10;97.10;;;;;;5069059;28;20459;-75
2022/10/27 02:35:38;;;;;;;29.37;27.27;;;12.10;97.30;;;;;;5067657;28;20477;-75
2022/10/27 02:38:05;;;;;;;20.07;18.17;;;12.20;97.30;;;;;;5065174;28;20948;-75
2022/10/27 02:40:32;;;;;;;18.17;16.57;;;12.20;97.50;;;;;;5065353;28;20457;-75
2022/10/27 02:42:59;;;;;;;21.07;18.77;;;12.20;97.50;;;;;;5060094;28;20455;-75
2022/10/27 02:45:26;;;;;;;18.80;17.30;;;12.20;97.80;;;;;;5064725;28;20513;-75
2022/10/27 02:47:52;;;;;;;23.77;18.73;;;12.20;97.50;;;;;;5076620;28;20461;-75
2022/10/27 02:50:21;;;;;;;19.77;18.17;;;12.20;97.60;;;;;;5079435;28;20469;-75
2022/10/27 02:52:47;;;;;;;18.23;16.53;;;12.20;97.80;;;;;;5059243;28;20963;-75
2022/10/27 02:55:15;;;;;;;23.40;21.20;;;12.20;98.00;;;;;;5061686;28;20473;-75
2022/10/27 02:57:41;;;;;;;19.40;17.90;;;12.20;98.00;;;;;;5058423;28;20465;-75
2022/10/27 03:00:09;;;;;;;19.50;17.60;;;12.20;98.00;;;;;;5051127;28;20457;-75
2022/10/27 03:02:36;;;;;;;18.40;16.67;;;12.20;98.20;;;;;;5054185;28;20806;-75
2022/10/27 03:05:03;;;;;;;20.83;19.43;;;12.30;98.20;;;;;;5072929;28;20478;-75
2022/10/27 03:07:31;;;;;;;18.93;17.13;;;12.30;98.20;;;;;;5065915;28;20462;-75
2022/10/27 03:09:58;;;;;;;19.03;17.50;;;12.30;98.10;;;;;;5056456;28;20479;-75
2022/10/27 03:12:25;;;;;;;20.70;18.90;;;12.30;98.00;;;;;;5072824;28;20492;-75
2022/10/27 03:14:52;;;;;;;17.50;16.20;;;12.30;97.90;;;;;;5063390;28;20561;-77
2022/10/27 03:17:19;;;;;;;20.80;18.83;;;12.30;97.80;;;;;;5067988;27;21124;-74
2022/10/27 03:19:45;;;;;;;20.30;18.33;;;12.30;97.70;;;;;;5084385;28;20467;-75
2022/10/27 03:22:12;;;;;;;18.77;16.90;;;12.20;98.00;;;;;;5060425;28;20475;-75
2022/10/27 03:24:41;;;;;;;18.30;16.70;;;12.20;98.10;;;;;;5068862;28;20478;-75
2022/10/27 03:27:07;;;;;;;25.10;23.50;;;12.30;98.00;;;;;;5065946;28;20450;-75
2022/10/27 03:29:34;;;;;;;19.07;17.27;;;12.20;98.20;;;;;;5066646;28;20477;-75
2022/10/27 03:32:01;;;;;;;20.50;19.07;;;12.30;98.20;;;;;;5058609;28;20553;-75
2022/10/27 03:34:28;;;;;;;17.40;16.10;;;12.20;98.00;;;;;;5063876;28;20824;-75
2022/10/27 03:36:55;;;;;;;18.50;17.10;;;12.20;98.10;;;;;;5066334;28;20459;-75
2022/10/27 03:39:22;;;;;;;27.07;25.13;;;12.30;98.00;;;;;;5060625;28;20464;-75
2022/10/27 03:41:50;;;;;;;19.87;18.50;;;12.30;97.30;;;;;;5058652;28;21080;-75
2022/10/27 03:44:17;;;;;;;23.50;21.43;;;12.20;96.90;;;;;;5055936;28;20461;-75
2022/10/27 03:46:44;;;;;;;22.77;20.80;;;12.10;96.90;;;;;;5049274;28;20530;-75
2022/10/27 03:49:11;;;;;;;22.40;20.50;;;12.10;96.80;;;;;;5068845;28;20553;-75
2022/10/27 03:51:38;;;;;;;18.87;17.40;;;12.00;97.00;;;;;;5060852;28;20469;-75
2022/10/27 03:54:05;;;;;;;21.87;20.17;;;11.90;97.20;;;;;;5050303;28;20467;-75
2022/10/27 03:56:32;;;;;;;19.20;17.70;;;11.90;97.60;;;;;;5068254;28;20850;-75
2022/10/27 03:59:00;;;;;;;25.50;23.70;;;11.90;97.90;;;;;;5052548;28;20475;-75
2022/10/27 04:01:27;;;;;;;24.30;22.60;;;12.00;98.00;;;;;;5073507;28;20845;-75
2022/10/27 04:03:54;;;;;;;29.50;27.10;;;12.00;98.10;;;;;;5066491;28;20465;-75
2022/10/27 04:06:21;;;;;;;23.40;21.50;;;12.00;98.20;;;;;;5061285;28;20476;-75
2022/10/27 04:08:48;;;;;;;18.37;16.83;;;12.00;98.40;;;;;;5047301;28;20477;-75
2022/10/27 04:11:15;;;;;;;30.07;27.93;;;12.10;98.40;;;;;;5072796;28;20565;-75
2022/10/27 04:13:42;;;;;;;22.80;21.10;;;12.10;98.10;;;;;;5054594;28;20462;-75
2022/10/27 04:16:10;;;;;;;28.43;26.10;;;12.10;98.30;;;;;;5071202;28;20484;-75
2022/10/27 04:18:37;;;;;;;23.30;21.43;;;12.10;98.30;;;;;;5068566;28;20552;-75
2022/10/27 04:21:05;;;;;;;18.50;17.10;;;12.10;98.40;;;;;;5064896;28;20446;-75
2022/10/27 04:23:32;;;;;;;25.07;23.37;;;12.30;98.20;;;;;;5057326;28;20998;-75
2022/10/27 04:26:00;;;;;;;27.87;25.07;;;12.20;97.80;;;;;;5062689;28;20848;-75
2022/10/27 04:28:27;;;;;;;18.23;16.83;;;12.20;97.80;;;;;;5062775;28;20453;-74
2022/10/27 04:30:54;;;;;;;24.08;22.08;;;12.10;97.90;;;;;;5063524;28;21043;-73
2022/10/27 04:33:22;;;;;;;19.57;17.97;;;12.30;98.00;;;;;;5057153;28;20468;-73
2022/10/27 04:35:49;;;;;;;25.40;23.17;;;12.20;97.60;;;;;;5063817;28;20470;-75
2022/10/27 04:38:16;;;;;;;19.27;17.80;;;12.10;97.80;;;;;;5065125;28;20460;-77
2022/10/27 04:40:43;;;;;;;28.57;26.67;;;12.10;97.90;;;;;;5055706;28;20970;-76
2022/10/27 04:43:10;;;;;;;18.57;17.03;;;12.00;97.90;;;;;;5069842;28;20449;-76
2022/10/27 04:45:37;;;;;;;19.83;17.80;;;12.00;98.00;;;;;;5066752;28;20480;-79
2022/10/27 04:48:04;;;;;;;19.90;18.00;;;12.00;98.40;;;;;;5066224;28;20449;-76
2022/10/27 04:50:33;;;;;;;26.13;24.13;;;12.00;98.30;;;;;;5063417;28;20486;-74
2022/10/27 04:53:01;;;;;;;27.67;25.53;;;12.00;98.30;;;;;;5060244;28;20569;-75
2022/10/27 04:55:30;;;;;;;21.00;19.07;;;12.00;98.10;;;;;;5063535;28;20975;-76
2022/10/27 04:57:57;;;;;;;18.47;16.80;;;12.10;97.80;;;;;;5062607;28;20456;-77
2022/10/27 05:00:25;;;;;;;27.00;25.30;;;12.00;97.70;;;;;;5065003;28;20798;-74
2022/10/27 05:02:55;;;;;;;19.70;18.10;;;12.00;98.10;;;;;;5084927;28;20554;-75
2022/10/27 05:05:23;;;;;;;23.23;21.47;;;11.90;98.20;;;;;;5058113;28;20494;-75
2022/10/27 05:07:57;;;;;;;18.87;17.17;;;11.90;98.00;;;;;;5054187;28;20464;-75
2022/10/27 05:10:24;;;;;;;19.33;17.73;;;12.00;97.80;;;;;;5056068;28;20479;-76
2022/10/27 05:12:51;;;;;;;18.70;16.93;;;12.00;97.50;;;;;;5073490;28;20486;-75
2022/10/27 05:15:18;;;;;;;23.00;20.90;;;11.90;97.50;;;;;;5049416;28;20482;-75
2022/10/27 05:17:45;;;;;;;25.27;23.27;;;11.90;97.50;;;;;;5053371;28;20947;-75
2022/10/27 05:20:12;;;;;;;23.07;20.67;;;11.80;97.60;;;;;;5063083;28;20519;-75
2022/10/27 05:22:39;;;;;;;21.40;19.33;;;11.80;97.70;;;;;;5059365;28;20458;-75
2022/10/27 05:25:09;;;;;;;18.50;17.07;;;11.80;97.60;;;;;;5051997;28;20475;-76
2022/10/27 05:27:36;;;;;;;22.47;20.43;;;11.70;97.50;;;;;;5051479;28;20461;-74
2022/10/27 05:30:04;;;;;;;29.77;28.03;;;11.70;97.60;;;;;;5049669;28;20470;-74
2022/10/27 05:32:31;;;;;;;18.73;17.23;;;11.60;97.70;;;;;;5062303;28;20469;-75
2022/10/27 05:34:57;;;;;;;22.93;20.57;;;11.70;98.00;;;;;;5062301;28;20496;-74
2022/10/27 05:37:24;;;;;;;20.77;19.17;;;11.70;98.00;;;;;;5065125;28;20457;-74
2022/10/27 05:39:51;;;;;;;25.70;23.90;;;11.70;97.80;;;;;;5059659;28;20996;-74
2022/10/27 05:42:20;;;;;;;21.97;20.13;;;11.70;97.80;;;;;;5062371;28;20472;-74
2022/10/27 05:44:47;;;;;;;23.10;21.50;;;11.70;97.70;;;;;;5060908;28;20481;-73
2022/10/27 05:47:14;;;;;;;26.63;24.53;;;11.70;97.80;;;;;;5060472;28;20545;-75
2022/10/27 05:49:41;;;;;;;29.80;27.40;;;11.70;97.80;;;;;;5057632;28;20458;-75
2022/10/27 05:52:08;;;;;;;20.33;18.47;;;11.70;97.40;;;;;;5067221;28;20924;-75
2022/10/27 05:54:35;;;;;;;23.63;21.70;;;11.70;97.40;;;;;;5061622;28;21283;-75
2022/10/27 05:57:02;;;;;;;21.43;19.50;;;11.70;97.50;;;;;;5059909;28;20473;-73
2022/10/27 05:59:30;;;;;;;31.33;29.20;;;11.70;97.30;;;;;;5063363;28;20539;-75
2022/10/27 06:01:57;;;;;;;35.00;32.57;;;11.70;97.20;;;;;;5050580;28;20459;-75
2022/10/27 06:04:24;;;;;;;21.47;17.90;;;11.70;97.30;;;;;;5056102;28;20476;-74
2022/10/27 06:06:50;;;;;;;24.13;22.50;;;11.70;97.20;;;;;;5054868;28;20458;-75
2022/10/27 06:09:18;;;;;;;24.77;19.13;;;11.70;97.30;;;;;;5061894;28;20557;-75
2022/10/27 06:11:44;;;;;;;28.60;26.70;;;11.70;97.30;;;;;;5056364;28;21143;-74
2022/10/27 06:14:11;;;;;;;19.93;18.23;;;11.70;97.20;;;;;;5050380;28;20459;-75
2022/10/27 06:16:40;;;;;;;21.07;19.50;;;11.70;97.00;;;;;;5055063;28;20454;-75
2022/10/27 06:19:06;;;;;;;27.10;23.93;;;11.70;97.10;;;;;;5051144;28;21015;-75
2022/10/27 06:21:33;;;;;;;28.53;25.90;;;11.70;97.10;;;;;;5049774;28;20457;-75
2022/10/27 06:24:00;;;;;;;24.80;23.00;;;11.80;96.90;;;;;;5055951;28;20466;-75
2022/10/27 06:26:27;;;;;;;24.20;22.20;;;11.80;97.00;;;;;;5050134;28;20482;-75
2022/10/27 06:28:54;;;;;;;27.73;25.47;;;11.80;97.10;;;;;;5052505;28;20457;-75
2022/10/27 06:31:21;;;;;;;24.50;22.63;;;12.00;96.80;;;;;;5049251;28;20476;-75
2022/10/27 06:33:49;;;;;;;30.20;28.23;;;12.00;96.90;;;;;;5060481;28;20460;-75
2022/10/27 06:36:16;;;;;;;20.37;18.53;;;12.10;97.10;;;;;;5054233;28;20497;-74
2022/10/27 06:38:43;;;;;;;31.33;29.30;;;12.20;96.30;;;;;;5051136;28;20484;-74
2022/10/27 06:41:10;;;;;;;33.00;30.13;;;12.30;96.00;;;;;;5062212;28;20473;-74
2022/10/27 06:43:37;;;;;;;27.40;25.10;;;12.30;96.00;;;;;;5052451;28;20449;-75
2022/10/27 06:46:04;;;;;;;29.83;27.63;;;12.30;96.00;;;;;;5051045;28;20477;-75
2022/10/27 06:48:31;;;;;;;29.60;27.60;;;12.30;96.20;;;;;;5061485;28;20450;-75
2022/10/27 06:50:59;;;;;;;19.67;18.07;;;12.40;96.00;;;;;;5060609;28;22170;-75
2022/10/27 06:53:26;;;;;;;22.93;21.20;;;12.40;95.60;;;;;;5047900;28;20498;-75
2022/10/27 06:55:54;;;;;;;29.07;26.97;;;12.40;95.70;;;;;;5052116;28;20841;-75
2022/10/27 06:58:21;;;;;;;28.50;26.00;;;12.40;95.70;;;;;;5064122;28;20454;-75
2022/10/27 07:00:51;;;;;;;26.07;23.87;;;12.40;95.80;;;;;;5051786;28;20463;-76
2022/10/27 07:03:18;;;;;;;27.47;25.57;;;12.50;95.70;;;;;;5054225;28;20565;-76
2022/10/27 07:05:45;;;;;;;34.47;32.07;;;12.50;95.60;;;;;;5052791;28;20490;-77
2022/10/27 07:08:13;;;;;;;25.50;23.70;;;12.60;95.40;;;;;;5052472;28;20927;-77
2022/10/27 07:10:40;;;;;;;31.47;29.07;;;12.70;95.40;;;;;;5056421;28;20491;-75
2022/10/27 07:13:07;;;;;;;29.97;27.80;;;12.80;95.20;;;;;;5048533;28;20501;-75
2022/10/27 07:15:37;;;;;;;19.90;18.00;;;12.80;95.20;;;;;;5052866;28;20483;-75
2022/10/27 07:18:05;;;;;;;23.77;21.40;;;12.90;95.20;;;;;;5047845;28;20534;-76
2022/10/27 07:20:33;;;;;;;31.73;29.63;;;13.00;94.70;;;;;;5048499;28;20465;-76
2022/10/27 07:23:01;;;;;;;28.50;26.70;;;13.00;95.00;;;;;;5051641;28;20459;-76
2022/10/27 07:25:29;;;;;;;33.07;31.00;;;13.10;95.00;;;;;;5057189;28;20493;-76
2022/10/27 07:27:57;;;;;;;27.47;24.73;;;13.10;95.10;;;;;;5047222;28;20469;-75
2022/10/27 07:30:26;;;;;;;25.37;23.50;;;13.20;94.60;;;;;;5049313;28;20461;-74
2022/10/27 07:32:53;;;;;;;30.80;28.30;;;13.20;94.50;;;;;;5051315;28;20462;-76
2022/10/27 07:35:19;;;;;;;20.83;19.43;;;13.40;94.10;;;;;;5048319;28;20483;-76
2022/10/27 07:37:47;;;;;;;27.13;25.03;;;13.50;94.00;;;;;;5054337;28;20783;-76
2022/10/27 07:40:15;;;;;;;33.67;31.60;;;13.60;93.70;;;;;;5049784;28;20535;-75
2022/10/27 07:42:45;;;;;;;31.77;29.87;;;13.70;93.50;;;;;;5051399;28;20451;-75
2022/10/27 07:45:12;;;;;;;28.90;26.80;;;13.80;93.20;;;;;;5050063;28;20829;-76
2022/10/27 07:47:43;;;;;;;30.33;28.00;;;13.90;93.00;;;;;;5047477;28;20465;-75
2022/10/27 07:50:10;;;;;;;32.20;30.10;;;14.00;92.70;;;;;;5050306;28;20947;-75
2022/10/27 07:52:41;;;;;;;34.43;32.27;;;14.10;92.50;;;;;;5056882;28;20473;-76
2022/10/27 07:55:09;;;;;;;35.43;33.33;;;14.20;92.40;;;;;;5053252;28;20734;-75
2022/10/27 07:57:37;;;;;;;36.37;34.17;;;14.20;91.90;;;;;;5051326;28;20798;-79
2022/10/27 08:00:07;;;;;;;27.60;25.50;;;14.10;91.80;;;;;;5055608;28;20494;-76
2022/10/27 08:02:34;;;;;;;41.17;38.50;;;14.10;92.00;;;;;;5049316;28;20996;-76
2022/10/27 08:05:01;;;;;;;23.90;21.90;;;14.00;92.60;;;;;;5061891;28;20490;-75
2022/10/27 08:07:29;;;;;;;22.77;20.57;;;14.10;92.60;;;;;;5065512;28;20458;-74
2022/10/27 08:09:56;;;;;;;29.83;28.03;;;14.20;92.60;;;;;;5052719;28;20450;-74
2022/10/27 08:12:23;;;;;;;21.90;20.20;;;14.30;92.40;;;;;;5062970;28;20481;-75
2022/10/27 08:14:50;;;;;;;31.07;28.97;;;14.50;92.20;;;;;;5063452;28;20570;-74
2022/10/27 08:17:18;;;;;;;26.83;24.80;;;14.60;91.70;;;;;;5055930;28;20529;-74
2022/10/27 08:19:45;;;;;;;32.63;30.23;;;14.70;91.20;;;;;;5066896;28;20458;-74
2022/10/27 08:22:12;;;;;;;32.03;30.10;;;14.70;90.90;;;;;;5059996;28;20900;-74
2022/10/27 08:24:40;;;;;;;27.17;24.77;;;14.90;90.60;;;;;;5058462;28;20603;-74
2022/10/27 08:27:07;;;;;;;31.73;29.07;;;14.90;90.20;;;;;;5059324;28;20455;-75
2022/10/27 08:29:33;;;;;;;34.53;31.70;;;15.10;89.60;;;;;;5052761;28;20455;-75
2022/10/27 08:32:02;;;;;;;30.67;28.40;;;15.10;89.10;;;;;;5054572;28;20484;-74
2022/10/27 08:34:30;;;;;;;26.23;23.77;;;15.20;89.20;;;;;;5054658;28;21077;-74
2022/10/27 08:36:57;;;;;;;41.40;37.77;;;15.20;89.00;;;;;;5065941;28;20456;-74
2022/10/27 08:39:24;;;;;;;32.00;29.40;;;15.30;88.90;;;;;;5057324;28;20451;-74
2022/10/27 08:41:57;;;;;;;29.53;27.23;;;15.30;88.50;;;;;;5059964;28;20460;-74
2022/10/27 08:44:29;;;;;;;38.67;36.10;;;15.30;88.60;;;;;;5061123;28;22336;-74
2022/10/27 08:47:00;;;;;;;28.87;26.33;;;15.50;88.20;;;;;;5058192;28;20533;-73
2022/10/27 08:49:40;;;;;;;30.47;27.37;;;15.70;87.60;;;;;;5050908;28;20466;-75
2022/10/27 08:52:15;;;;;;;25.50;23.70;;;15.80;86.50;;;;;;5064080;28;20487;-75
2022/10/27 08:54:46;;;;;;;35.00;32.60;;;15.80;86.40;;;;;;5054270;28;20482;-75
2022/10/27 08:57:19;;;;;;;34.13;31.47;;;15.90;86.30;;;;;;5063178;28;20458;-75
2022/10/27 08:59:46;;;;;;;32.23;29.10;;;15.90;86.50;;;;;;5051609;28;21397;-75
2022/10/27 09:02:28;;;;;;;35.60;32.17;;;16.00;86.40;;;;;;5065336;28;20462;-75
2022/10/27 09:05:11;;;;;;;27.20;24.73;;;16.10;86.20;;;;;;5052148;28;21033;-75
2022/10/27 09:07:47;;;;;;;26.47;23.90;;;16.30;86.00;;;;;;5063216;28;20523;-75
2022/10/27 09:10:21;;;;;;;38.63;35.90;;;16.40;85.60;;;;;;5067069;28;20959;-75
2022/10/27 09:13:03;;;;;;;31.43;29.13;;;16.60;85.20;;;;;;5064580;28;20473;-74
2022/10/27 09:15:39;;;;;;;28.40;26.00;;;16.80;84.50;;;;;;5051750;28;20871;-75
2022/10/27 09:18:13;;;;;;;26.20;24.20;;;17.00;82.60;;;;;;5063042;28;20469;-74
2022/10/27 09:20:45;;;;;;;27.60;25.70;;;16.90;82.20;;;;;;5053903;28;20466;-74
2022/10/27 09:23:16;;;;;;;36.43;33.83;;;16.90;82.30;;;;;;5065072;28;21015;-75
2022/10/27 09:25:46;;;;;;;37.27;34.50;;;16.80;82.50;;;;;;5056700;28;20490;-75
2022/10/27 09:28:19;;;;;;;27.97;26.17;;;16.90;82.70;;;;;;5057938;28;20450;-75
2022/10/27 09:30:49;;;;;;;32.33;29.73;;;17.10;82.50;;;;;;5049925;28;20465;-74
2022/10/27 09:33:20;;;;;;;44.40;41.63;;;17.20;82.30;;;;;;5054085;28;20470;-75
2022/10/27 09:35:50;;;;;;;43.97;40.90;;;17.30;82.10;;;;;;5056494;28;20483;-75
2022/10/27 09:38:22;;;;;;;43.67;41.07;;;17.50;81.90;;;;;;5056121;28;20812;-75
2022/10/27 09:40:50;;;;;;;42.13;39.50;;;17.70;81.60;;;;;;5058058;28;20459;-75
2022/10/27 09:43:18;;;;;;;43.10;40.40;;;17.80;80.90;;;;;;5064114;28;20461;-75
2022/10/27 09:45:48;;;;;;;36.97;34.60;;;17.90;80.40;;;;;;5053749;28;20473;-75
2022/10/27 09:48:19;;;;;;;38.10;35.67;;;18.00;80.10;;;;;;5064199;28;20870;-74
2022/10/27 09:50:52;;;;;;;42.17;39.77;;;18.10;79.70;;;;;;5063503;28;20476;-73
2022/10/27 09:53:41;;;;;;;36.63;34.40;;;18.30;79.00;;;;;;5063298;28;20484;-73
2022/10/27 09:56:11;;;;;;;32.07;29.37;;;18.50;77.70;;;;;;5047212;28;20590;-73
2022/10/27 09:58:56;;;;;;;31.07;28.90;;;18.40;77.90;;;;;;5050960;28;20467;-73
2022/10/27 10:01:24;;;;;;;41.27;38.50;;;18.40;78.30;;;;;;5059768;28;20461;-75
2022/10/27 10:03:56;;;;;;;44.83;42.07;;;18.60;77.40;;;;;;5047212;28;20454;-75
2022/10/27 10:06:35;;;;;;;41.07;38.57;;;18.70;76.80;;;;;;5064622;28;20820;-75
2022/10/27 10:09:22;;;;;;;43.40;41.10;;;18.80;76.70;;;;;;5062575;28;20459;-74
2022/10/27 10:11:50;;;;;;;37.83;35.23;;;18.90;76.10;;;;;;5053956;28;20477;-74
2022/10/27 10:14:22;;;;;;;32.03;29.63;;;19.00;76.40;;;;;;5050915;28;20463;-74
2022/10/27 10:16:50;;;;;;;35.60;33.40;;;19.00;76.30;;;;;;5049464;28;20465;-74
2022/10/27 10:19:21;;;;;;;35.47;33.00;;;19.20;76.00;;;;;;5056356;28;20450;-76
2022/10/27 10:21:53;;;;;;;31.13;29.10;;;19.30;74.80;;;;;;5055867;28;20452;-75
2022/10/27 10:24:22;;;;;;;42.37;39.90;;;19.40;74.00;;;;;;5046771;28;20458;-73
2022/10/27 10:26:54;;;;;;;36.77;34.27;;;19.50;73.90;;;;;;5047657;28;20462;-76
2022/10/27 10:29:29;;;;;;;30.13;27.83;;;19.60;73.40;;;;;;5048927;28;20465;-76
2022/10/27 10:32:13;;;;;;;33.87;31.17;;;19.80;73.30;;;;;;5058127;28;20470;-76
2022/10/27 10:34:43;;;;;;;34.17;31.87;;;19.90;73.20;;;;;;5052277;28;20479;-76
2022/10/27 10:37:38;;;;;;;33.73;31.73;;;19.90;73.00;;;;;;5051080;28;20828;-76
2022/10/27 10:40:28;;;;;;;46.77;43.70;;;20.00;73.60;;;;;;5059642;28;20541;-76
2022/10/27 10:43:11;;;;;;;30.90;29.10;;;20.10;73.40;;;;;;5051416;28;20520;-76
2022/10/27 10:45:40;;;;;;;44.40;41.73;;;20.30;72.70;;;;;;5048634;28;20510;-76
2022/10/27 10:48:17;;;;;;;37.57;35.20;;;20.40;71.90;;;;;;5054414;28;20454;-76
2022/10/27 10:50:49;;;;;;;38.80;36.80;;;20.60;71.00;;;;;;5059497;28;20492;-76
2022/10/27 10:53:25;;;;;;;32.47;30.50;;;20.70;70.10;;;;;;5063167;28;20604;-76
2022/10/27 10:55:54;;;;;;;37.43;35.27;;;20.80;69.80;;;;;;5064656;28;20478;-76
2022/10/27 10:58:23;;;;;;;40.97;38.67;;;20.90;70.00;;;;;;5053835;28;20467;-76
2022/10/27 11:00:55;;;;;;;32.50;30.40;;;21.00;69.30;;;;;;5062211;28;20532;-76
2022/10/27 11:03:24;;;;;;;43.90;40.93;;;21.00;69.00;;;;;;5055227;28;20798;-76
2022/10/27 11:05:58;;;;;;;43.60;40.83;;;21.10;68.70;;;;;;5062356;28;20486;-76
2022/10/27 11:08:34;;;;;;;34.67;32.60;;;21.30;68.00;;;;;;5053330;28;20489;-76
2022/10/27 11:11:03;;;;;;;33.40;31.70;;;21.30;68.20;;;;;;5049356;28;20458;-76
2022/10/27 11:13:38;;;;;;;40.97;38.37;;;21.30;68.70;;;;;;5060364;28;20512;-76
2022/10/27 11:16:08;;;;;;;38.73;36.53;;;21.40;68.90;;;;;;5060142;28;20481;-76
2022/10/27 11:18:44;;;;;;;39.97;37.23;;;21.50;68.80;;;;;;5065177;28;20454;-76
2022/10/27 11:21:19;;;;;;;35.10;32.90;;;21.50;68.60;;;;;;5061500;28;20458;-76
2022/10/27 11:23:50;;;;;;;45.07;42.60;;;21.60;68.40;;;;;;5051427;28;20552;-76
2022/10/27 11:26:21;;;;;;;38.57;36.37;;;21.70;68.60;;;;;;5046637;28;20477;-76
2022/10/27 11:28:59;;;;;;;47.20;44.33;;;21.70;68.70;;;;;;5053287;28;20465;-75
2022/10/27 11:31:37;;;;;;;46.03;43.67;;;21.80;68.70;;;;;;5051166;28;20456;-75
2022/10/27 11:34:14;;;;;;;35.97;34.10;;;21.80;68.40;;;;;;5049628;28;20487;-76
2022/10/27 11:36:49;;;;;;;36.97;34.30;;;21.90;68.20;;;;;;5052792;28;20469;-77
2022/10/27 11:39:21;;;;;;;40.87;38.40;;;21.90;67.40;;;;;;5050329;28;20470;-76
2022/10/27 11:41:55;;;;;;;32.53;30.40;;;21.90;67.50;;;;;;5048876;28;20469;-76
2022/10/27 11:44:30;;;;;;;34.83;32.47;;;22.00;67.00;;;;;;5051243;28;20458;-76
2022/10/27 11:47:03;;;;;;;37.37;34.90;;;22.00;66.80;;;;;;5049727;28;20458;-76
2022/10/27 11:49:36;;;;;;;37.67;35.67;;;22.10;66.60;;;;;;5050372;28;20474;-76
2022/10/27 11:52:12;;;;;;;35.10;33.10;;;22.10;66.30;;;;;;5047389;28;20459;-77
2022/10/27 11:54:41;;;;;;;35.50;33.03;;;22.20;66.30;;;;;;5052667;28;20481;-74
2022/10/27 11:57:19;;;;;;;33.37;31.63;;;22.30;66.00;;;;;;5049396;28;20786;-77
2022/10/27 11:59:59;;;;;;;29.63;28.13;;;22.30;66.00;;;;;;5049622;28;21006;-74
2022/10/27 12:02:51;;;;;;;45.27;42.40;;;22.40;65.60;;;;;;5048391;28;20442;-73
2022/10/27 12:05:23;;;;;;;35.77;34.03;;;22.50;65.60;;;;;;5051134;28;21307;-78
2022/10/27 12:08:02;;;;;;;30.83;28.83;;;22.60;64.80;;;;;;5049107;28;20462;-77
2022/10/27 12:10:36;;;;;;;42.27;39.80;;;22.60;64.90;;;;;;5050014;28;20615;-75
2022/10/27 12:13:09;;;;;;;29.53;27.67;;;22.70;64.90;;;;;;5050541;28;20507;-74
2022/10/27 12:15:44;;;;;;;31.23;28.93;;;22.70;64.60;;;;;;5048979;28;20529;-75
2022/10/27 12:18:21;;;;;;;32.60;30.80;;;22.80;64.20;;;;;;5048983;28;20455;-75
2022/10/27 12:20:54;;;;;;;33.63;31.80;;;22.90;63.70;;;;;;5047313;28;20459;-75
2022/10/27 12:23:24;;;;;;;30.90;28.87;;;23.00;63.50;;;;;;5050497;28;20457;-74
2022/10/27 12:26:00;;;;;;;42.03;39.57;;;23.00;64.10;;;;;;5062987;28;21035;-75
2022/10/27 12:28:28;;;;;;;29.43;27.40;;;23.10;63.60;;;;;;5058869;28;21155;-78
2022/10/27 12:30:59;;;;;;;33.90;31.93;;;23.10;63.60;;;;;;5061104;28;20462;-76
2022/10/27 12:33:31;;;;;;;39.57;37.30;;;23.10;63.70;;;;;;5056814;28;21086;-75
2022/10/27 12:36:06;;;;;;;43.27;40.30;;;23.20;63.60;;;;;;5065563;28;20478;-77
2022/10/27 12:38:41;;;;;;;35.63;33.80;;;23.20;63.80;;;;;;5061791;28;20545;-77
2022/10/27 12:41:15;;;;;;;36.30;33.93;;;23.20;63.40;;;;;;5063993;28;20459;-77
2022/10/27 12:43:52;;;;;;;35.67;33.33;;;23.20;63.00;;;;;;5056830;28;20466;-77